createdAt,value
2018-08-11T00:00:21.879Z,19.10
2018-08-11T00:01:22.004Z,18.98
2018-08-11T00:02:21.838Z,18.95
2018-08-11T00:03:21.915Z,18.94
2018-08-11T00:04:21.791Z,18.92
2018-08-11T00:05:21.826Z,18.83
2018-08-11T00:06:21.758Z,18.79
2018-08-11T00:07:21.848Z,18.76
2018-08-11T00:08:21.703Z,18.82
2018-08-11T00:09:21.752Z,18.64
2018-08-11T00:10:21.671Z,18.59
2018-08-11T00:11:21.765Z,18.52
2018-08-11T00:12:21.629Z,18.50
2018-08-11T00:13:21.674Z,18.49
2018-08-11T00:14:21.576Z,18.52
2018-08-11T00:15:21.691Z,18.47
2018-08-11T00:16:21.531Z,18.44
2018-08-11T00:17:21.604Z,18.49
2018-08-11T00:18:21.489Z,18.37
2018-08-11T00:19:21.620Z,18.39
2018-08-11T00:20:21.446Z,18.31
2018-08-11T00:21:21.542Z,18.33
2018-08-11T00:22:21.400Z,18.25
2018-08-11T00:23:21.543Z,18.18
2018-08-11T00:24:21.366Z,18.27
2018-08-11T00:25:21.474Z,18.17
2018-08-11T00:26:21.316Z,18.19
2018-08-11T00:27:21.366Z,18.18
2018-08-11T00:28:21.272Z,17.99
2018-08-11T00:29:21.393Z,17.95
2018-08-11T00:30:21.227Z,17.82
2018-08-11T00:31:21.294Z,17.87
2018-08-11T00:32:21.185Z,17.79
2018-08-11T00:33:21.310Z,17.70
2018-08-11T00:34:21.141Z,17.67
2018-08-11T00:35:21.219Z,17.63
2018-08-11T00:36:21.138Z,17.59
2018-08-11T00:37:21.234Z,17.55
2018-08-11T00:38:21.053Z,17.64
2018-08-11T00:39:21.151Z,17.59
2018-08-11T00:40:21.008Z,17.62
2018-08-11T00:41:21.161Z,17.51
2018-08-11T00:42:20.971Z,17.36
2018-08-11T00:43:21.073Z,17.23
2018-08-11T00:44:20.921Z,17.15
2018-08-11T00:45:21.090Z,17.13
2018-08-11T00:46:20.877Z,17.08
2018-08-11T00:47:21.014Z,17.08
2018-08-11T00:48:20.832Z,17.08
2018-08-11T00:49:20.923Z,16.99
2018-08-11T00:50:20.794Z,16.92
2018-08-11T00:51:20.925Z,16.80
2018-08-11T00:52:20.743Z,16.89
2018-08-11T00:53:20.836Z,16.75
2018-08-11T00:54:20.700Z,16.74
2018-08-11T00:55:20.864Z,16.65
2018-08-11T00:56:20.659Z,16.60
2018-08-11T00:57:21.791Z,16.70
2018-08-11T00:58:20.615Z,16.48
2018-08-11T00:59:20.781Z,16.48
2018-08-11T01:00:20.569Z,16.52
2018-08-11T01:01:20.700Z,16.35
2018-08-11T01:02:20.571Z,16.25
2018-08-11T01:03:20.711Z,16.11
2018-08-11T01:04:20.473Z,16.18
2018-08-11T01:05:20.630Z,16.07
2018-08-11T01:06:20.435Z,16.11
2018-08-11T01:07:20.540Z,16.07
2018-08-11T01:08:20.389Z,16.06
2018-08-11T01:09:20.543Z,16.09
2018-08-11T01:10:20.346Z,16.14
2018-08-11T01:11:20.468Z,16.06
2018-08-11T01:12:20.308Z,16.03
2018-08-11T01:13:20.472Z,15.99
2018-08-11T01:14:20.256Z,15.96
2018-08-11T01:15:20.393Z,16.00
2018-08-11T01:16:20.216Z,16.00
2018-08-11T01:17:20.401Z,16.03
2018-08-11T01:18:20.161Z,15.99
2018-08-11T01:19:20.320Z,15.93
2018-08-11T01:20:20.123Z,15.93
2018-08-11T01:21:20.223Z,15.92
2018-08-11T01:22:20.073Z,15.93
2018-08-11T01:23:20.237Z,15.85
2018-08-11T01:24:20.027Z,15.93
2018-08-11T01:25:20.151Z,15.84
2018-08-11T01:26:19.982Z,15.85
2018-08-11T01:27:20.062Z,15.84
2018-08-11T01:28:19.936Z,15.92
2018-08-11T01:29:19.975Z,15.86
2018-08-11T01:30:19.892Z,15.93
2018-08-11T01:31:19.987Z,15.85
2018-08-11T01:32:19.843Z,15.84
2018-08-11T01:33:19.899Z,15.86
2018-08-11T01:34:19.814Z,15.82
2018-08-11T01:35:19.913Z,15.86
2018-08-11T01:36:19.756Z,15.72
2018-08-11T01:37:19.825Z,15.82
2018-08-11T01:38:19.709Z,15.79
2018-08-11T01:39:19.749Z,15.79
2018-08-11T01:40:19.664Z,15.78
2018-08-11T01:41:19.749Z,15.67
2018-08-11T01:42:19.621Z,15.64
2018-08-11T01:43:19.660Z,15.63
2018-08-11T01:44:19.621Z,15.64
2018-08-11T01:45:19.674Z,15.64
2018-08-11T01:46:19.526Z,15.51
2018-08-11T01:47:19.586Z,15.57
2018-08-11T01:48:19.485Z,15.52
2018-08-11T01:49:19.603Z,15.41
2018-08-11T01:50:19.432Z,15.52
2018-08-11T01:51:19.514Z,15.43
2018-08-11T01:52:19.389Z,15.41
2018-08-11T01:53:19.424Z,15.38
2018-08-11T01:54:19.341Z,15.45
2018-08-11T01:55:19.436Z,15.24
2018-08-11T01:56:19.297Z,15.33
2018-08-11T01:57:19.349Z,15.26
2018-08-11T01:58:19.250Z,15.26
2018-08-11T01:59:19.361Z,15.27
2018-08-11T02:00:19.209Z,15.28
2018-08-11T02:01:19.275Z,15.30
2018-08-11T02:02:19.157Z,15.26
2018-08-11T02:03:19.289Z,15.23
2018-08-11T02:04:19.110Z,15.24
2018-08-11T02:05:19.201Z,15.24
2018-08-11T02:06:19.068Z,15.35
2018-08-11T02:07:19.112Z,15.38
2018-08-11T02:08:19.020Z,15.27
2018-08-11T02:09:19.125Z,15.26
2018-08-11T02:10:18.974Z,15.24
2018-08-11T02:11:19.113Z,15.24
2018-08-11T02:12:18.938Z,15.23
2018-08-11T02:13:19.050Z,15.30
2018-08-11T02:14:18.882Z,15.21
2018-08-11T02:15:18.962Z,15.17
2018-08-11T02:16:18.835Z,15.26
2018-08-11T02:17:18.874Z,15.12
2018-08-11T02:18:18.785Z,15.19
2018-08-11T02:19:18.890Z,15.26
2018-08-11T02:20:18.737Z,15.27
2018-08-11T02:21:18.800Z,15.33
2018-08-11T02:22:18.698Z,15.28
2018-08-11T02:23:18.814Z,15.26
2018-08-11T02:24:18.646Z,15.24
2018-08-11T02:25:18.729Z,15.21
2018-08-11T02:26:18.600Z,15.15
2018-08-11T02:27:18.755Z,15.13
2018-08-11T02:28:18.552Z,15.13
2018-08-11T02:29:18.652Z,15.19
2018-08-11T02:30:18.507Z,15.19
2018-08-11T02:31:18.564Z,15.11
2018-08-11T02:32:18.461Z,15.03
2018-08-11T02:33:18.581Z,15.02
2018-08-11T02:34:18.460Z,15.06
2018-08-11T02:35:18.491Z,14.94
2018-08-11T02:36:18.367Z,15.03
2018-08-11T02:37:18.508Z,14.95
2018-08-11T02:38:18.323Z,14.88
2018-08-11T02:39:18.420Z,14.98
2018-08-11T02:40:18.273Z,14.94
2018-08-11T02:41:18.431Z,15.02
2018-08-11T02:42:18.233Z,14.95
2018-08-11T02:43:18.342Z,14.93
2018-08-11T02:44:18.183Z,14.91
2018-08-11T02:45:18.256Z,14.93
2018-08-11T02:46:18.133Z,14.91
2018-08-11T02:47:18.269Z,14.94
2018-08-11T02:48:18.089Z,14.94
2018-08-11T02:49:18.181Z,14.80
2018-08-11T02:50:18.043Z,14.90
2018-08-11T02:51:18.196Z,14.86
2018-08-11T02:52:18.000Z,14.88
2018-08-11T02:53:18.106Z,14.90
2018-08-11T02:54:17.951Z,14.80
2018-08-11T02:55:18.133Z,14.90
2018-08-11T02:56:17.894Z,14.86
2018-08-11T02:57:18.033Z,14.84
2018-08-11T02:58:17.852Z,14.83
2018-08-11T02:59:17.946Z,14.83
2018-08-11T03:00:17.801Z,14.81
2018-08-11T03:01:17.957Z,14.87
2018-08-11T03:02:17.780Z,14.67
2018-08-11T03:03:17.871Z,14.67
2018-08-11T03:04:17.710Z,14.61
2018-08-11T03:05:17.885Z,14.57
2018-08-11T03:06:17.661Z,14.62
2018-08-11T03:07:17.797Z,14.61
2018-08-11T03:08:17.632Z,14.64
2018-08-11T03:09:17.813Z,14.62
2018-08-11T03:10:17.564Z,14.52
2018-08-11T03:11:17.722Z,14.61
2018-08-11T03:12:17.530Z,14.60
2018-08-11T03:13:17.634Z,14.56
2018-08-11T03:14:17.498Z,14.54
2018-08-11T03:15:17.650Z,14.56
2018-08-11T03:16:17.437Z,14.56
2018-08-11T03:17:17.564Z,14.61
2018-08-11T03:18:17.410Z,14.61
2018-08-11T03:19:17.573Z,14.54
2018-08-11T03:20:17.329Z,14.52
2018-08-11T03:21:17.488Z,14.62
2018-08-11T03:22:17.292Z,14.56
2018-08-11T03:23:17.296Z,14.54
2018-08-11T03:24:17.252Z,14.54
2018-08-11T03:25:17.310Z,14.56
2018-08-11T03:26:17.207Z,14.53
2018-08-11T03:27:17.222Z,14.53
2018-08-11T03:28:17.172Z,14.54
2018-08-11T03:29:17.238Z,14.50
2018-08-11T03:30:17.106Z,14.52
2018-08-11T03:31:17.148Z,14.46
2018-08-11T03:32:17.056Z,14.46
2018-08-11T03:33:17.166Z,14.52
2018-08-11T03:34:17.002Z,14.49
2018-08-11T03:35:17.073Z,14.46
2018-08-11T03:36:16.965Z,14.44
2018-08-11T03:37:16.987Z,14.46
2018-08-11T03:38:16.927Z,14.49
2018-08-11T03:39:17.001Z,14.49
2018-08-11T03:40:16.852Z,14.46
2018-08-11T03:41:16.911Z,14.44
2018-08-11T03:42:16.818Z,14.53
2018-08-11T03:43:16.926Z,14.50
2018-08-11T03:44:16.763Z,14.49
2018-08-11T03:45:16.837Z,14.47
2018-08-11T03:46:16.724Z,14.43
2018-08-11T03:47:16.749Z,14.49
2018-08-11T03:48:16.677Z,14.46
2018-08-11T03:49:16.765Z,14.49
2018-08-11T03:50:16.625Z,14.47
2018-08-11T03:51:16.676Z,14.44
2018-08-11T03:52:16.577Z,14.49
2018-08-11T03:53:16.690Z,14.46
2018-08-11T03:54:16.531Z,14.46
2018-08-11T03:55:16.603Z,14.37
2018-08-11T03:56:16.489Z,14.34
2018-08-11T03:57:16.513Z,14.43
2018-08-11T03:58:16.439Z,14.43
2018-08-11T03:59:16.528Z,14.38
2018-08-11T04:00:16.380Z,14.35
2018-08-11T04:01:16.439Z,14.52
2018-08-11T04:02:16.340Z,14.46
2018-08-11T04:03:16.454Z,14.38
2018-08-11T04:04:16.290Z,14.39
2018-08-11T04:05:16.365Z,14.47
2018-08-11T04:06:16.269Z,14.49
2018-08-11T04:07:16.379Z,14.49
2018-08-11T04:08:16.210Z,14.47
2018-08-11T04:09:16.291Z,14.49
2018-08-11T04:10:16.152Z,14.42
2018-08-11T04:11:16.204Z,14.43
2018-08-11T04:12:16.104Z,14.52
2018-08-11T04:13:16.217Z,14.46
2018-08-11T04:14:16.052Z,14.49
2018-08-11T04:15:16.128Z,14.49
2018-08-11T04:16:16.015Z,14.43
2018-08-11T04:17:16.146Z,14.37
2018-08-11T04:18:15.951Z,14.47
2018-08-11T04:19:16.064Z,14.49
2018-08-11T04:20:15.941Z,14.52
2018-08-11T04:21:15.969Z,14.46
2018-08-11T04:22:15.866Z,14.49
2018-08-11T04:23:17.011Z,14.54
2018-08-11T04:24:15.815Z,14.50
2018-08-11T04:25:15.894Z,14.49
2018-08-11T04:26:15.785Z,14.49
2018-08-11T04:27:15.906Z,14.49
2018-08-11T04:28:15.744Z,14.60
2018-08-11T04:29:15.820Z,14.50
2018-08-11T04:30:15.668Z,14.49
2018-08-11T04:31:15.835Z,14.50
2018-08-11T04:32:15.664Z,14.52
2018-08-11T04:33:15.772Z,14.57
2018-08-11T04:34:15.576Z,14.47
2018-08-11T04:35:15.650Z,14.49
2018-08-11T04:36:15.539Z,14.49
2018-08-11T04:37:15.672Z,14.56
2018-08-11T04:38:15.487Z,14.54
2018-08-11T04:39:15.584Z,14.56
2018-08-11T04:40:15.438Z,14.50
2018-08-11T04:41:15.599Z,14.44
2018-08-11T04:42:15.427Z,14.44
2018-08-11T04:43:15.536Z,14.50
2018-08-11T04:44:15.343Z,14.49
2018-08-11T04:45:15.459Z,14.47
2018-08-11T04:46:15.299Z,14.43
2018-08-11T04:47:15.435Z,14.43
2018-08-11T04:48:15.251Z,14.44
2018-08-11T04:49:15.357Z,14.57
2018-08-11T04:50:15.203Z,14.60
2018-08-11T04:51:15.367Z,14.53
2018-08-11T04:52:15.154Z,14.60
2018-08-11T04:53:15.277Z,14.53
2018-08-11T04:54:15.107Z,14.53
2018-08-11T04:55:15.195Z,14.53
2018-08-11T04:56:15.065Z,14.62
2018-08-11T04:57:15.233Z,14.57
2018-08-11T04:58:15.011Z,14.54
2018-08-11T04:59:15.121Z,14.54
2018-08-11T05:00:14.963Z,14.64
2018-08-11T05:01:15.153Z,14.62
2018-08-11T05:02:14.916Z,14.61
2018-08-11T05:03:15.044Z,14.53
2018-08-11T05:04:14.868Z,14.60
2018-08-11T05:05:15.060Z,14.57
2018-08-11T05:06:14.828Z,14.64
2018-08-11T05:07:14.968Z,14.64
2018-08-11T05:08:14.778Z,14.62
2018-08-11T05:09:14.877Z,14.67
2018-08-11T05:10:14.728Z,14.72
2018-08-11T05:11:14.889Z,14.69
2018-08-11T05:12:14.682Z,14.81
2018-08-11T05:13:14.806Z,14.81
2018-08-11T05:14:14.632Z,14.83
2018-08-11T05:15:14.817Z,14.80
2018-08-11T05:16:14.588Z,14.88
2018-08-11T05:17:14.727Z,14.91
2018-08-11T05:18:14.539Z,14.83
2018-08-11T05:19:14.554Z,14.86
2018-08-11T05:20:14.503Z,14.87
2018-08-11T05:21:14.551Z,14.88
2018-08-11T05:22:14.444Z,14.84
2018-08-11T05:23:14.462Z,14.86
2018-08-11T05:24:14.397Z,14.93
2018-08-11T05:25:14.477Z,14.90
2018-08-11T05:26:14.368Z,14.91
2018-08-11T05:27:14.388Z,15.01
2018-08-11T05:28:14.301Z,14.90
2018-08-11T05:29:14.408Z,14.95
2018-08-11T05:30:14.259Z,15.03
2018-08-11T05:31:14.313Z,15.05
2018-08-11T05:32:14.211Z,15.05
2018-08-11T05:33:14.236Z,15.01
2018-08-11T05:34:14.161Z,15.02
2018-08-11T05:35:14.243Z,15.06
2018-08-11T05:36:14.107Z,15.08
2018-08-11T05:37:14.187Z,15.12
2018-08-11T05:38:14.065Z,15.05
2018-08-11T05:39:14.185Z,15.06
2018-08-11T05:40:14.016Z,15.03
2018-08-11T05:41:14.081Z,15.06
2018-08-11T05:42:13.976Z,15.05
2018-08-11T05:43:13.991Z,15.21
2018-08-11T05:44:13.923Z,15.13
2018-08-11T05:45:14.011Z,15.15
2018-08-11T05:46:13.879Z,15.20
2018-08-11T05:47:13.920Z,15.23
2018-08-11T05:48:13.897Z,15.24
2018-08-11T05:49:13.930Z,15.30
2018-08-11T05:50:13.792Z,15.33
2018-08-11T05:51:13.845Z,15.38
2018-08-11T05:52:13.741Z,15.36
2018-08-11T05:53:13.856Z,15.35
2018-08-11T05:54:13.697Z,15.33
2018-08-11T05:55:13.779Z,15.35
2018-08-11T05:56:13.632Z,15.39
2018-08-11T05:57:13.681Z,15.45
2018-08-11T05:58:13.599Z,15.45
2018-08-11T05:59:13.696Z,15.41
2018-08-11T06:00:13.561Z,15.46
2018-08-11T06:01:13.608Z,15.46
2018-08-11T06:02:13.505Z,15.43
2018-08-11T06:03:13.621Z,15.46
2018-08-11T06:04:13.457Z,15.45
2018-08-11T06:05:13.532Z,15.48
2018-08-11T06:06:13.412Z,15.52
2018-08-11T06:07:13.401Z,15.56
2018-08-11T06:08:13.363Z,15.56
2018-08-11T06:09:13.411Z,15.45
2018-08-11T06:10:13.318Z,15.57
2018-08-11T06:11:13.320Z,15.61
2018-08-11T06:12:13.271Z,15.60
2018-08-11T06:13:13.334Z,15.70
2018-08-11T06:14:13.228Z,15.67
2018-08-11T06:15:13.239Z,15.72
2018-08-11T06:16:13.176Z,15.74
2018-08-11T06:17:13.254Z,15.75
2018-08-11T06:18:13.130Z,15.78
2018-08-11T06:19:13.166Z,15.84
2018-08-11T06:20:13.089Z,15.84
2018-08-11T06:21:13.226Z,15.88
2018-08-11T06:22:13.035Z,15.89
2018-08-11T06:23:13.090Z,15.99
2018-08-11T06:24:12.990Z,16.00
2018-08-11T06:25:13.001Z,16.04
2018-08-11T06:26:12.944Z,15.97
2018-08-11T06:27:13.011Z,15.96
2018-08-11T06:28:12.899Z,16.06
2018-08-11T06:29:12.922Z,16.11
2018-08-11T06:30:12.852Z,16.18
2018-08-11T06:31:12.938Z,16.12
2018-08-11T06:32:12.879Z,16.14
2018-08-11T06:33:12.844Z,16.12
2018-08-11T06:34:12.762Z,16.09
2018-08-11T06:35:12.756Z,16.14
2018-08-11T06:36:12.716Z,16.25
2018-08-11T06:37:12.763Z,16.23
2018-08-11T06:38:12.669Z,16.23
2018-08-11T06:39:12.673Z,16.22
2018-08-11T06:40:12.626Z,16.14
2018-08-11T06:41:12.765Z,16.16
2018-08-11T06:42:12.577Z,16.12
2018-08-11T06:43:12.679Z,16.15
2018-08-11T06:44:12.528Z,16.26
2018-08-11T06:45:12.505Z,16.30
2018-08-11T06:46:12.488Z,16.27
2018-08-11T06:47:12.610Z,16.27
2018-08-11T06:48:12.437Z,16.26
2018-08-11T06:49:12.521Z,16.23
2018-08-11T06:50:12.536Z,16.27
2018-08-11T06:51:12.370Z,16.27
2018-08-11T06:52:12.598Z,16.38
2018-08-11T06:53:12.321Z,16.35
2018-08-11T06:54:12.446Z,16.42
2018-08-11T06:55:12.279Z,16.42
2018-08-11T06:56:12.353Z,16.52
2018-08-11T06:57:12.230Z,16.49
2018-08-11T06:58:12.376Z,16.53
2018-08-11T06:59:12.183Z,16.58
2018-08-11T07:00:12.289Z,16.58
2018-08-11T07:01:12.142Z,16.56
2018-08-11T07:02:12.303Z,16.60
2018-08-11T07:03:12.092Z,16.60
2018-08-11T07:04:12.222Z,16.65
2018-08-11T07:05:12.047Z,16.63
2018-08-11T07:06:12.226Z,16.70
2018-08-11T07:07:12.004Z,16.73
2018-08-11T07:08:12.039Z,16.73
2018-08-11T07:09:11.955Z,16.77
2018-08-11T07:10:12.050Z,16.73
2018-08-11T07:11:11.909Z,16.83
2018-08-11T07:12:12.068Z,16.74
2018-08-11T07:13:11.862Z,16.88
2018-08-11T07:14:11.878Z,16.90
2018-08-11T07:15:11.844Z,16.86
2018-08-11T07:16:11.887Z,16.86
2018-08-11T07:17:11.771Z,16.93
2018-08-11T07:18:11.826Z,16.90
2018-08-11T07:19:11.729Z,16.89
2018-08-11T07:20:11.816Z,16.96
2018-08-11T07:21:11.692Z,17.00
2018-08-11T07:22:11.732Z,16.98
2018-08-11T07:23:11.633Z,17.10
2018-08-11T07:24:11.742Z,17.10
2018-08-11T07:25:11.589Z,17.04
2018-08-11T07:26:11.653Z,17.11
2018-08-11T07:27:11.542Z,17.15
2018-08-11T07:28:11.564Z,17.06
2018-08-11T07:29:11.504Z,17.10
2018-08-11T07:30:11.595Z,17.04
2018-08-11T07:31:11.454Z,17.17
2018-08-11T07:32:11.492Z,17.15
2018-08-11T07:33:11.404Z,17.23
2018-08-11T07:34:11.505Z,17.32
2018-08-11T07:35:11.363Z,17.23
2018-08-11T07:36:11.424Z,17.32
2018-08-11T07:37:11.318Z,17.30
2018-08-11T07:38:11.432Z,17.26
2018-08-11T07:39:11.271Z,17.26
2018-08-11T07:40:11.344Z,17.40
2018-08-11T07:41:11.226Z,17.41
2018-08-11T07:42:11.258Z,17.33
2018-08-11T07:43:11.185Z,17.36
2018-08-11T07:44:11.268Z,17.36
2018-08-11T07:45:11.140Z,17.43
2018-08-11T07:46:11.182Z,17.48
2018-08-11T07:47:11.092Z,17.48
2018-08-11T07:48:11.195Z,17.55
2018-08-11T07:49:11.044Z,17.41
2018-08-11T07:50:11.136Z,17.46
2018-08-11T07:51:11.013Z,17.46
2018-08-11T07:52:11.121Z,17.50
2018-08-11T07:53:10.957Z,17.51
2018-08-11T07:54:11.033Z,17.51
2018-08-11T07:55:10.910Z,17.57
2018-08-11T07:56:10.944Z,17.59
2018-08-11T07:57:10.867Z,17.71
2018-08-11T07:58:10.960Z,17.74
2018-08-11T07:59:10.824Z,17.78
2018-08-11T08:00:10.867Z,17.87
2018-08-11T08:01:10.822Z,17.85
2018-08-11T08:02:10.752Z,17.76
2018-08-11T08:03:10.891Z,17.85
2018-08-11T08:04:10.708Z,17.81
2018-08-11T08:05:10.700Z,17.88
2018-08-11T08:06:10.708Z,17.81
2018-08-11T08:07:10.640Z,17.82
2018-08-11T08:08:10.721Z,17.99
2018-08-11T08:09:10.602Z,18.04
2018-08-11T08:10:10.635Z,18.03
2018-08-11T08:11:10.558Z,18.10
2018-08-11T08:12:10.544Z,18.09
2018-08-11T08:13:10.512Z,18.00
2018-08-11T08:14:10.559Z,18.03
2018-08-11T08:15:10.464Z,18.09
2018-08-11T08:16:10.471Z,18.13
2018-08-11T08:17:10.422Z,18.27
2018-08-11T08:18:10.485Z,18.18
2018-08-11T08:19:10.374Z,18.17
2018-08-11T08:20:10.399Z,18.22
2018-08-11T08:21:10.329Z,18.29
2018-08-11T08:22:10.412Z,18.31
2018-08-11T08:23:10.286Z,18.29
2018-08-11T08:24:10.315Z,18.36
2018-08-11T08:25:10.241Z,18.34
2018-08-11T08:26:10.300Z,18.37
2018-08-11T08:27:10.198Z,18.49
2018-08-11T08:28:10.252Z,18.44
2018-08-11T08:29:10.157Z,18.39
2018-08-11T08:30:10.162Z,18.49
2018-08-11T08:31:10.106Z,18.52
2018-08-11T08:32:10.176Z,18.57
2018-08-11T08:33:10.067Z,18.67
2018-08-11T08:34:10.089Z,18.65
2018-08-11T08:35:10.020Z,18.77
2018-08-11T08:36:10.100Z,18.72
2018-08-11T08:37:09.977Z,18.65
2018-08-11T08:38:10.014Z,18.72
2018-08-11T08:39:09.933Z,18.76
2018-08-11T08:40:09.929Z,18.76
2018-08-11T08:41:09.887Z,18.76
2018-08-11T08:42:09.944Z,18.77
2018-08-11T08:43:09.846Z,18.67
2018-08-11T08:44:09.854Z,18.70
2018-08-11T08:45:09.801Z,18.72
2018-08-11T08:46:09.865Z,18.84
2018-08-11T08:47:09.759Z,18.87
2018-08-11T08:48:09.782Z,18.91
2018-08-11T08:49:09.701Z,19.01
2018-08-11T08:50:09.796Z,18.87
2018-08-11T08:51:09.671Z,18.76
2018-08-11T08:52:09.708Z,18.74
2018-08-11T08:53:09.664Z,18.82
2018-08-11T08:54:09.620Z,18.94
2018-08-11T08:55:09.586Z,18.86
2018-08-11T08:56:09.632Z,18.87
2018-08-11T08:57:09.542Z,18.97
2018-08-11T08:58:09.556Z,19.01
2018-08-11T08:59:09.508Z,19.11
2018-08-11T09:00:09.560Z,19.18
2018-08-11T09:01:09.451Z,19.31
2018-08-11T09:02:09.470Z,19.35
2018-08-11T09:03:09.399Z,19.54
2018-08-11T09:04:09.485Z,19.75
2018-08-11T09:05:09.371Z,19.65
2018-08-11T09:06:09.398Z,19.68
2018-08-11T09:07:09.328Z,19.53
2018-08-11T09:08:09.412Z,19.70
2018-08-11T09:09:09.281Z,19.80
2018-08-11T09:10:09.313Z,19.91
2018-08-11T09:11:09.240Z,20.02
2018-08-11T09:12:09.224Z,20.00
2018-08-11T09:13:09.210Z,20.05
2018-08-11T09:14:09.248Z,19.93
2018-08-11T09:15:09.152Z,19.72
2018-08-11T09:16:09.161Z,19.66
2018-08-11T09:17:09.107Z,19.61
2018-08-11T09:18:09.171Z,19.60
2018-08-11T09:19:09.064Z,19.80
2018-08-11T09:20:09.086Z,19.88
2018-08-11T09:21:09.013Z,20.08
2018-08-11T09:22:09.100Z,20.09
2018-08-11T09:23:08.978Z,20.00
2018-08-11T09:24:09.012Z,20.08
2018-08-11T09:25:08.936Z,19.75
2018-08-11T09:26:09.031Z,19.70
2018-08-11T09:27:08.896Z,19.72
2018-08-11T09:28:08.938Z,19.70
2018-08-11T09:29:08.875Z,19.63
2018-08-11T09:30:08.848Z,19.90
2018-08-11T09:31:08.828Z,20.25
2018-08-11T09:32:08.866Z,20.61
2018-08-11T09:33:08.767Z,20.56
2018-08-11T09:34:08.773Z,20.50
2018-08-11T09:35:08.720Z,20.62
2018-08-11T09:36:08.790Z,20.62
2018-08-11T09:37:08.684Z,20.59
2018-08-11T09:38:08.699Z,20.35
2018-08-11T09:39:08.639Z,20.16
2018-08-11T09:40:08.736Z,20.18
2018-08-11T09:41:08.602Z,20.35
2018-08-11T09:42:09.651Z,20.71
2018-08-11T09:43:08.563Z,20.77
2018-08-11T09:44:08.641Z,20.93
2018-08-11T09:45:08.511Z,21.09
2018-08-11T09:46:08.715Z,21.38
2018-08-11T09:47:08.472Z,21.64
2018-08-11T09:48:08.452Z,21.76
2018-08-11T09:49:08.430Z,21.94
2018-08-11T09:50:08.404Z,22.12
2018-08-11T09:51:08.473Z,22.25
2018-08-11T09:52:08.367Z,22.28
2018-08-11T09:53:08.390Z,22.50
2018-08-11T09:54:08.334Z,22.47
2018-08-11T09:55:08.304Z,22.47
2018-08-11T09:56:08.279Z,22.57
2018-08-11T09:57:08.322Z,22.71
2018-08-11T09:58:08.243Z,23.02
2018-08-11T09:59:08.237Z,22.96
2018-08-11T10:00:08.203Z,22.60
2018-08-11T10:01:08.248Z,22.57
2018-08-11T10:02:08.160Z,22.82
2018-08-11T10:03:08.262Z,22.92
2018-08-11T10:04:08.116Z,22.99
2018-08-11T10:05:08.147Z,22.89
2018-08-11T10:06:08.101Z,22.86
2018-08-11T10:07:08.189Z,22.64
2018-08-11T10:08:08.043Z,22.52
2018-08-11T10:09:08.026Z,21.97
2018-08-11T10:10:08.031Z,21.74
2018-08-11T10:11:08.026Z,21.97
2018-08-11T10:12:07.963Z,22.13
2018-08-11T10:13:08.031Z,22.57
2018-08-11T10:14:07.925Z,22.84
2018-08-11T10:15:07.900Z,23.02
2018-08-11T10:16:07.948Z,23.01
2018-08-11T10:17:07.866Z,22.94
2018-08-11T10:18:07.860Z,22.78
2018-08-11T10:19:07.823Z,22.74
2018-08-11T10:20:07.801Z,22.69
2018-08-11T10:21:07.802Z,22.96
2018-08-11T10:22:07.781Z,23.32
2018-08-11T10:23:07.760Z,23.49
2018-08-11T10:24:07.807Z,23.53
2018-08-11T10:25:07.713Z,23.22
2018-08-11T10:26:07.711Z,22.99
2018-08-11T10:27:07.670Z,22.97
2018-08-11T10:28:07.726Z,23.02
2018-08-11T10:29:07.628Z,22.86
2018-08-11T10:30:07.637Z,22.86
2018-08-11T10:31:07.600Z,22.71
2018-08-11T10:32:07.648Z,22.53
2018-08-11T10:33:07.553Z,22.27
2018-08-11T10:34:07.561Z,22.27
2018-08-11T10:35:07.504Z,22.35
2018-08-11T10:36:07.585Z,22.78
2018-08-11T10:37:07.478Z,23.12
2018-08-11T10:38:07.495Z,23.53
2018-08-11T10:39:07.448Z,23.76
2018-08-11T10:40:07.531Z,23.82
2018-08-11T10:41:07.399Z,23.94
2018-08-11T10:42:07.417Z,24.26
2018-08-11T10:43:07.372Z,24.44
2018-08-11T10:44:07.436Z,24.56
2018-08-11T10:45:07.323Z,24.71
2018-08-11T10:46:07.349Z,24.60
2018-08-11T10:47:07.355Z,24.13
2018-08-11T10:48:07.363Z,24.13
2018-08-11T10:49:07.251Z,24.13
2018-08-11T10:50:07.271Z,24.26
2018-08-11T10:51:07.219Z,24.20
2018-08-11T10:52:07.287Z,23.92
2018-08-11T10:53:07.177Z,23.42
2018-08-11T10:54:07.197Z,22.89
2018-08-11T10:55:07.145Z,22.84
2018-08-11T10:56:07.210Z,22.94
2018-08-11T10:57:07.103Z,23.22
2018-08-11T10:58:07.123Z,23.76
2018-08-11T10:59:07.070Z,24.07
2018-08-11T11:00:07.143Z,23.94
2018-08-11T11:01:07.034Z,23.92
2018-08-11T11:02:07.020Z,23.80
2018-08-11T11:03:07.002Z,23.83
2018-08-11T11:04:07.068Z,24.02
2018-08-11T11:05:06.959Z,24.10
2018-08-11T11:06:06.979Z,24.13
2018-08-11T11:07:06.923Z,24.27
2018-08-11T11:08:06.987Z,24.49
2018-08-11T11:09:06.905Z,24.41
2018-08-11T11:10:06.891Z,24.34
2018-08-11T11:11:06.852Z,24.32
2018-08-11T11:12:06.918Z,24.49
2018-08-11T11:13:06.829Z,24.44
2018-08-11T11:14:06.831Z,24.59
2018-08-11T11:15:06.793Z,24.92
2018-08-11T11:16:06.836Z,25.17
2018-08-11T11:17:06.747Z,25.39
2018-08-11T11:18:06.751Z,25.64
2018-08-11T11:19:06.706Z,25.34
2018-08-11T11:20:06.770Z,25.01
2018-08-11T11:21:06.675Z,24.54
2018-08-11T11:22:06.674Z,24.41
2018-08-11T11:23:06.641Z,24.19
2018-08-11T11:24:06.703Z,23.97
2018-08-11T11:25:06.625Z,23.90
2018-08-11T11:26:06.612Z,23.98
2018-08-11T11:27:06.646Z,24.20
2018-08-11T11:28:06.631Z,24.22
2018-08-11T11:29:06.535Z,23.92
2018-08-11T11:30:06.539Z,24.05
2018-08-11T11:31:06.504Z,24.05
2018-08-11T11:32:06.546Z,23.65
2018-08-11T11:33:06.477Z,23.65
2018-08-11T11:34:06.565Z,23.58
2018-08-11T11:35:06.420Z,23.68
2018-08-11T11:36:06.475Z,23.62
2018-08-11T11:37:06.418Z,23.31
2018-08-11T11:38:06.499Z,23.20
2018-08-11T11:39:06.359Z,22.96
2018-08-11T11:40:06.395Z,22.82
2018-08-11T11:41:06.321Z,23.02
2018-08-11T11:42:06.413Z,23.17
2018-08-11T11:43:06.291Z,23.65
2018-08-11T11:44:06.327Z,23.79
2018-08-11T11:45:06.263Z,23.90
2018-08-11T11:46:06.338Z,24.07
2018-08-11T11:47:06.218Z,24.26
2018-08-11T11:48:06.244Z,24.44
2018-08-11T11:49:06.181Z,24.63
2018-08-11T11:50:06.259Z,24.76
2018-08-11T11:51:06.144Z,24.92
2018-08-11T11:52:06.175Z,24.91
2018-08-11T11:53:06.143Z,24.79
2018-08-11T11:54:06.189Z,24.49
2018-08-11T11:55:06.088Z,24.53
2018-08-11T11:56:06.103Z,24.75
2018-08-11T11:57:06.040Z,24.95
2018-08-11T11:58:06.114Z,25.02
2018-08-11T11:59:06.013Z,24.97
2018-08-11T12:00:06.029Z,25.02
2018-08-11T12:01:05.969Z,24.83
2018-08-11T12:02:06.026Z,24.45
2018-08-11T12:03:05.941Z,24.14
2018-08-11T12:04:05.950Z,23.97
2018-08-11T12:05:05.899Z,24.05
2018-08-11T12:06:05.883Z,23.98
2018-08-11T12:07:05.892Z,24.04
2018-08-11T12:08:05.978Z,24.02
2018-08-11T12:09:05.830Z,23.94
2018-08-11T12:10:05.900Z,23.79
2018-08-11T12:11:05.798Z,23.80
2018-08-11T12:12:05.906Z,23.76
2018-08-11T12:13:05.832Z,23.68
2018-08-11T12:14:05.817Z,23.71
2018-08-11T12:15:05.726Z,23.75
2018-08-11T12:16:05.830Z,24.01
2018-08-11T12:17:05.688Z,24.42
2018-08-11T12:18:05.744Z,24.61
2018-08-11T12:19:05.655Z,24.77
2018-08-11T12:20:05.756Z,25.05
2018-08-11T12:21:05.621Z,25.24
2018-08-11T12:22:05.599Z,25.37
2018-08-11T12:23:05.680Z,25.50
2018-08-11T12:24:05.567Z,25.56
2018-08-11T12:25:05.592Z,25.22
2018-08-11T12:26:05.532Z,25.16
2018-08-11T12:27:05.705Z,25.20
2018-08-11T12:28:05.501Z,25.32
2018-08-11T12:29:05.513Z,25.34
2018-08-11T12:30:05.467Z,25.35
2018-08-11T12:31:05.544Z,25.43
2018-08-11T12:32:05.433Z,25.69
2018-08-11T12:33:05.541Z,25.86
2018-08-11T12:34:05.397Z,25.79
2018-08-11T12:35:05.555Z,25.91
2018-08-11T12:36:05.567Z,26.02
2018-08-11T12:37:05.465Z,25.91
2018-08-11T12:38:05.333Z,25.87
2018-08-11T12:39:05.483Z,25.69
2018-08-11T12:40:05.333Z,25.86
2018-08-11T12:41:07.803Z,25.56
2018-08-11T12:42:05.266Z,25.22
2018-08-11T12:43:05.411Z,24.92
2018-08-11T12:44:05.224Z,24.98
2018-08-11T12:45:05.214Z,25.13
2018-08-11T12:46:05.206Z,25.32
2018-08-11T12:47:05.334Z,25.71
2018-08-11T12:48:05.166Z,25.89
2018-08-11T12:49:05.349Z,25.89
2018-08-11T12:50:05.133Z,25.47
2018-08-11T12:51:05.118Z,25.12
2018-08-11T12:52:05.101Z,25.02